Time;durP1;ratioP1;P1;durP2;ratioP2;P2;SDS_P1;SDS_P2;PMS_P1;PMS_P2;Temp;Humidity;BMP_temperature;BMP_pressure;BME280_temperature;BME280_humidity;BME280_pressure;Samples;Min_cycle;Max_cycle;Signal;HPM_P1;HPM_P2
2023/10/06 00:00:47;;;;;;;0.65;0.65;;;;;;;15.56;59.27;100731.25;4472412;32;33391;-81
2023/10/06 00:03:16;;;;;;;0.65;0.65;;;;;;;15.62;59.01;100730.97;4473731;32;33843;-80
2023/10/06 00:05:48;;;;;;;0.82;0.52;;;;;;;15.64;58.44;100739.75;4475039;32;33998;-79
2023/10/06 00:08:17;;;;;;;0.30;0.30;;;;;;;15.40;59.69;100736.47;4473200;32;34856;-80
2023/10/06 00:10:51;;;;;;;0.10;0.10;;;;;;;15.42;60.03;100744.38;4474274;32;33661;-80
2023/10/06 00:13:28;;;;;;;0.50;0.50;;;;;;;15.38;60.18;100748.97;4473393;32;34156;-80
2023/10/06 00:15:56;;;;;;;0.25;0.25;;;;;;;15.44;59.20;100740.72;4459267;32;33992;-80
2023/10/06 00:18:27;;;;;;;0.47;0.47;;;;;;;15.39;59.63;100737.41;4461298;32;32592;-80
2023/10/06 00:20:56;;;;;;;1.05;1.05;;;;;;;15.14;60.47;100737.72;4472800;32;33070;-80
2023/10/06 00:23:28;;;;;;;1.08;1.00;;;;;;;15.19;60.59;100743.69;4461023;32;34801;-81
2023/10/06 00:25:56;;;;;;;0.03;0.03;;;;;;;15.27;60.10;100743.31;4449253;32;33202;-81
2023/10/06 00:28:26;;;;;;;0.10;0.10;;;;;;;15.38;59.01;100740.97;4474370;32;33229;-82
2023/10/06 00:31:06;;;;;;;0.08;0.08;;;;;;;15.22;59.63;100750.66;4463500;32;33185;-81
2023/10/06 00:33:38;;;;;;;3.85;1.87;;;;;;;15.14;59.92;100742.16;4473094;32;33981;-81
2023/10/06 00:36:12;;;;;;;0.73;0.68;;;;;;;15.07;59.90;100747.78;4462367;32;33562;-81
2023/10/06 00:38:50;;;;;;;0.32;0.32;;;;;;;14.97;60.10;100749.16;4459543;32;33820;-81
2023/10/06 00:41:20;;;;;;;0.20;0.20;;;;;;;15.04;59.71;100752.37;4464814;32;32996;-81
2023/10/06 00:43:51;;;;;;;1.33;0.32;;;;;;;15.09;59.72;100750.38;4463758;32;34532;-81
2023/10/06 00:46:19;;;;;;;2.42;0.75;;;;;;;14.89;59.99;100753.97;4458211;32;33121;-81
2023/10/06 00:48:56;;;;;;;0.50;0.50;;;;;;;14.87;59.97;100761.16;4461464;32;33913;-81
2023/10/06 00:51:27;;;;;;;0.68;0.68;;;;;;;14.78;60.18;100758.94;4453827;32;33356;-81
2023/10/06 00:53:56;;;;;;;0.73;0.62;;;;;;;14.74;60.43;100750.22;4483267;32;34612;-81
2023/10/06 00:56:27;;;;;;;1.15;0.32;;;;;;;14.75;60.17;100756.41;4464393;32;33116;-81
2023/10/06 00:58:55;;;;;;;1.85;0.65;;;;;;;14.84;59.63;100750.66;4477141;32;33706;-81
2023/10/06 01:01:23;;;;;;;0.15;0.15;;;;;;;14.71;59.75;100742.37;4464754;32;33607;-82
2023/10/06 01:04:11;;;;;;;0.57;0.17;;;;;;;14.42;60.67;100743.66;4480527;32;33613;-81
2023/10/06 01:06:41;;;;;;;0.22;0.22;;;;;;;14.51;60.48;100748.59;4468717;32;34084;-81
2023/10/06 01:11:45;;;;;;;0.13;0.13;;;;;;;14.65;60.09;100749.78;4474986;32;33340;-82
2023/10/06 01:14:21;;;;;;;0.70;0.43;;;;;;;14.51;60.46;100745.09;4465576;32;33776;-81
2023/10/06 01:16:50;;;;;;;3.70;1.40;;;;;;;14.53;60.25;100749.41;4466981;32;33935;-81
2023/10/06 01:19:27;;;;;;;2.47;1.25;;;;;;;14.57;60.19;100748.34;4467202;32;32847;-81
2023/10/06 01:21:55;;;;;;;0.17;0.17;;;;;;;14.60;59.96;100745.53;4466212;32;33050;-81
2023/10/06 01:24:27;;;;;;;0.30;0.20;;;;;;;14.62;59.86;100745.44;4465577;32;34814;-81
2023/10/06 01:27:00;;;;;;;2.37;0.47;;;;;;;14.62;59.52;100745.44;4463204;32;33903;-81
2023/10/06 01:29:30;;;;;;;1.45;0.73;;;;;;;14.26;60.40;100748.78;4477146;32;33686;-81
2023/10/06 01:32:05;;;;;;;0.45;0.45;;;;;;;14.35;59.94;100747.53;4466173;32;32551;-81
2023/10/06 01:34:39;;;;;;;0.65;0.62;;;;;;;14.34;59.87;100759.09;4477257;32;33961;-81
2023/10/06 01:37:09;;;;;;;0.00;0.00;;;;;;;14.41;59.85;100755.22;4465292;32;34421;-81
2023/10/06 01:39:38;;;;;;;0.00;0.00;;;;;;;14.48;59.53;100762.03;4466592;32;33459;-80
2023/10/06 01:42:17;;;;;;;0.77;0.77;;;;;;;14.43;59.80;100766.66;4478081;32;34178;-80
2023/10/06 01:44:45;;;;;;;0.55;0.47;;;;;;;14.42;59.57;100770.22;4477505;32;33546;-80
2023/10/06 01:47:13;;;;;;;0.25;0.20;;;;;;;14.27;60.20;100770.91;4476108;32;35018;-79
2023/10/06 01:49:43;;;;;;;0.35;0.35;;;;;;;14.17;60.27;100758.97;4477810;32;34532;-80
2023/10/06 01:52:14;;;;;;;1.25;0.90;;;;;;;14.34;59.82;100767.06;4467666;32;34466;-79
2023/10/06 01:54:44;;;;;;;3.25;0.45;;;;;;;14.28;59.53;100764.66;4479567;32;34652;-80
2023/10/06 01:57:15;;;;;;;0.00;0.00;;;;;;;14.28;59.65;100769.97;4465837;32;33682;-79
2023/10/06 01:59:44;;;;;;;0.70;0.43;;;;;;;14.28;59.82;100780.59;4480579;32;33664;-79
2023/10/06 02:02:13;;;;;;;0.70;0.32;;;;;;;14.10;59.69;100776.97;4465666;32;34253;-80
2023/10/06 02:04:45;;;;;;;0.98;0.98;;;;;;;14.15;59.61;100774.97;4464557;32;33508;-80
2023/10/06 02:07:13;;;;;;;0.47;0.47;;;;;;;14.07;60.20;100783.25;4473614;32;33497;-80
2023/10/06 02:09:41;;;;;;;0.43;0.43;;;;;;;13.89;60.21;100788.47;4464530;32;33542;-80
2023/10/06 02:12:09;;;;;;;0.05;0.05;;;;;;;13.83;60.70;100789.59;4461842;32;32696;-80
2023/10/06 02:14:36;;;;;;;0.55;0.55;;;;;;;13.92;60.67;100794.53;4461931;32;32892;-80
2023/10/06 02:17:08;;;;;;;1.00;1.00;;;;;;;13.90;60.44;100793.72;4464235;32;32880;-80
2023/10/06 02:19:37;;;;;;;6.97;1.55;;;;;;;13.86;60.65;100791.25;4459669;32;32775;-80
2023/10/06 02:22:06;;;;;;;0.10;0.00;;;;;;;14.01;60.30;100790.63;4460091;32;33850;-80
2023/10/06 02:24:34;;;;;;;0.25;0.25;;;;;;;14.03;59.97;100784.31;4460557;32;33165;-80
2023/10/06 02:27:02;;;;;;;0.85;0.85;;;;;;;14.07;59.90;100785.06;4462301;32;34022;-80
2023/10/06 02:29:30;;;;;;;0.30;0.30;;;;;;;14.06;59.60;100783.34;4461359;32;32727;-80
2023/10/06 02:32:01;;;;;;;0.45;0.45;;;;;;;13.84;60.15;100783.34;4473269;32;33251;-80
2023/10/06 02:34:31;;;;;;;0.62;0.45;;;;;;;13.96;59.75;100792.63;4476521;32;33542;-80
2023/10/06 02:37:04;;;;;;;0.47;0.47;;;;;;;13.89;59.66;100788.47;4461703;32;33400;-80
2023/10/06 02:39:37;;;;;;;0.75;0.65;;;;;;;13.72;60.11;100799.78;4462077;32;33428;-80
2023/10/06 02:42:09;;;;;;;0.37;0.37;;;;;;;13.80;59.98;100787.91;4463379;32;33622;-81
2023/10/06 02:44:41;;;;;;;0.10;0.10;;;;;;;13.95;59.48;100797.03;4464998;32;33880;-80
2023/10/06 02:47:10;;;;;;;0.77;0.55;;;;;;;13.98;59.51;100804.03;4461333;32;34149;-80
2023/10/06 02:49:47;;;;;;;0.10;0.10;;;;;;;13.94;59.66;100799.75;4463328;32;33898;-78
2023/10/06 02:52:30;;;;;;;1.12;0.75;;;;;;;13.95;59.50;100797.03;4472761;32;33532;-79
2023/10/06 02:57:35;;;;;;;0.20;0.20;;;;;;;13.88;59.83;100787.62;4472056;32;32873;-79
2023/10/06 03:00:32;;;;;;;0.33;0.33;;;;;;;13.86;59.40;100800.06;4464469;32;32822;-81
2023/10/06 03:03:03;;;;;;;0.35;0.10;;;;;;;13.84;58.99;100805.44;4478418;32;33616;-80
2023/10/06 03:05:32;;;;;;;0.05;0.05;;;;;;;13.60;59.91;100805.59;4451862;32;32875;-81
2023/10/06 03:08:20;;;;;;;3.00;0.90;;;;;;;13.61;60.32;100807.31;4474749;32;34990;-80
2023/10/06 03:10:48;;;;;;;0.20;0.20;;;;;;;13.64;60.32;100802.75;4465128;32;34281;-80
2023/10/06 03:13:31;;;;;;;0.80;0.68;;;;;;;13.68;nan;100809.69;4458893;32;32146;-80
2023/10/06 03:15:59;;;;;;;0.20;0.20;;;;;;;13.61;60.49;100809.97;4470785;32;33877;-80
2023/10/06 03:18:30;;;;;;;0.10;0.10;;;;;;;13.69;59.80;100805.22;4474631;32;33656;-81
2023/10/06 03:21:13;;;;;;;0.00;0.00;;;;;;;13.73;59.88;100804.19;4460955;32;34560;-81
2023/10/06 03:23:44;;;;;;;0.60;0.60;;;;;;;13.67;59.79;100804.41;4476570;32;32963;-80
2023/10/06 03:26:21;;;;;;;2.00;0.20;;;;;;;13.67;59.64;100805.25;4462305;32;32630;-82
2023/10/06 03:28:52;;;;;;;0.35;0.30;;;;;;;13.68;59.97;100799.06;4462753;32;33713;-82
2023/10/06 03:33:50;;;;;;;1.30;0.73;;;;;;;13.68;nan;100799.06;4474136;32;33544;-81
2023/10/06 03:36:30;;;;;;;0.05;0.05;;;;;;;13.67;60.29;100796.44;4463774;32;33985;-81
2023/10/06 03:39:05;;;;;;;1.17;0.60;;;;;;;13.80;59.67;100801.19;4473088;32;35449;-81
2023/10/06 03:41:37;;;;;;;4.37;0.90;;;;;;;13.84;59.24;100799.28;4473463;32;32736;-81
2023/10/06 03:44:05;;;;;;;0.90;0.75;;;;;;;13.86;59.27;100802.72;4475031;32;32892;-81
2023/10/06 03:46:39;;;;;;;1.00;0.57;;;;;;;13.69;60.05;100805.22;4476636;32;33872;-81
2023/10/06 03:49:07;;;;;;;0.05;0.05;;;;;;;14.02;58.80;100809.16;4461280;32;34432;-81
2023/10/06 03:51:40;;;;;;;0.37;0.37;;;;;;;13.99;58.69;100806.59;4462740;32;35546;-81
2023/10/06 03:54:09;;;;;;;;;;;;;;;14.04;58.79;100804.62;4476369;32;33070;-81
2023/10/06 03:56:37;;;;;;;0.10;0.10;;;;;;;14.16;58.75;100799.75;4461783;32;33151;-81
2023/10/06 03:59:15;;;;;;;0.77;0.55;;;;;;;13.95;59.29;100807.66;4448148;32;33980;-81
2023/10/06 04:01:46;;;;;;;1.50;0.60;;;;;;;14.19;58.35;100799.59;4464524;32;32818;-81
2023/10/06 04:04:15;;;;;;;0.08;0.08;;;;;;;14.29;58.24;100798.25;4464721;32;32894;-80
2023/10/06 04:06:43;;;;;;;0.17;0.17;;;;;;;14.53;57.02;100802.56;4461461;32;33521;-81
2023/10/06 04:09:11;;;;;;;0.70;0.70;;;;;;;14.33;57.87;100798.06;4457680;32;33435;-81
2023/10/06 04:11:42;;;;;;;6.75;0.45;;;;;;;14.25;57.70;100799.34;4460633;32;33728;-81
2023/10/06 04:14:10;;;;;;;0.47;0.25;;;;;;;14.33;57.74;100797.19;4450893;32;32047;-81
2023/10/06 04:16:44;;;;;;;1.00;0.80;;;;;;;14.28;57.72;100804.50;4472816;32;34440;-81
2023/10/06 04:19:15;;;;;;;0.10;0.10;;;;;;;14.23;57.96;100802.03;4474623;32;33987;-81
2023/10/06 04:21:43;;;;;;;0.97;0.87;;;;;;;14.43;57.15;100814.50;4459807;32;32713;-80
2023/10/06 04:24:14;;;;;;;0.40;0.40;;;;;;;14.76;56.21;100803.31;4473872;32;33560;-81
2023/10/06 04:26:42;;;;;;;2.40;0.55;;;;;;;14.53;57.51;100810.53;4475503;32;33470;-81
2023/10/06 04:29:13;;;;;;;2.10;1.90;;;;;;;14.71;56.66;100798.19;4463504;32;33270;-79
2023/10/06 04:31:41;;;;;;;3.95;1.52;;;;;;;14.98;55.54;100806.72;4461522;32;33809;-80
2023/10/06 04:34:10;;;;;;;0.40;0.40;;;;;;;15.09;54.93;100800.91;4460550;32;33185;-81
2023/10/06 04:36:38;;;;;;;1.42;0.35;;;;;;;14.89;56.42;100812.47;4471149;32;34679;-80
2023/10/06 04:39:11;;;;;;;0.28;0.28;;;;;;;14.96;55.66;100807.75;4460645;32;33047;-81
2023/10/06 04:41:41;;;;;;;0.30;0.30;;;;;;;14.95;55.28;100812.19;4457922;32;33570;-81
2023/10/06 04:44:10;;;;;;;0.47;0.45;;;;;;;14.96;55.02;100808.59;4466418;32;33350;-81
2023/10/06 04:46:39;;;;;;;0.43;0.28;;;;;;;14.81;55.47;100814.59;4459466;32;32074;-81
2023/10/06 04:49:07;;;;;;;1.75;0.68;;;;;;;15.06;54.63;100815.22;4473129;32;34361;-81
2023/10/06 04:51:35;;;;;;;2.25;1.27;;;;;;;15.06;54.59;100817.88;4469867;32;32006;-81
2023/10/06 04:54:07;;;;;;;0.45;0.45;;;;;;;14.67;56.18;100819.66;4458109;32;33489;-81
2023/10/06 04:56:36;;;;;;;0.10;0.10;;;;;;;15.24;54.36;100820.59;4462574;32;32907;-81
2023/10/06 04:59:06;;;;;;;1.08;1.00;;;;;;;15.38;54.09;100820.81;4473156;32;32329;-81
2023/10/06 05:01:34;;;;;;;0.55;0.55;;;;;;;15.35;54.13;100821.84;4471548;32;33390;-81
2023/10/06 05:04:06;;;;;;;0.68;0.50;;;;;;;15.41;53.98;100820.69;4459312;32;33355;-80
2023/10/06 05:06:35;;;;;;;;;;;;;;;15.55;53.84;100814.72;4456308;32;32896;-81
2023/10/06 05:09:03;;;;;;;5.35;0.43;;;;;;;15.65;53.21;100824.00;4461403;32;33830;-81
2023/10/06 05:11:32;;;;;;;0.28;0.20;;;;;;;15.46;54.30;100826.66;4458760;32;34801;-80
2023/10/06 05:14:01;;;;;;;0.30;0.30;;;;;;;15.45;54.38;100827.59;4472779;32;33520;-80
2023/10/06 05:16:29;;;;;;;0.62;0.62;;;;;;;15.61;53.36;100836.56;4469090;32;33574;-80
2023/10/06 05:18:57;;;;;;;0.40;0.25;;;;;;;15.43;53.93;100845.44;4471488;32;33677;-80
2023/10/06 05:21:24;;;;;;;0.50;0.20;;;;;;;15.71;53.25;100850.31;4456807;32;33880;-80
2023/10/06 05:23:53;;;;;;;0.65;0.65;;;;;;;15.43;53.82;100856.09;4469298;32;33473;-80
2023/10/06 05:26:20;;;;;;;0.47;0.47;;;;;;;15.19;54.43;100860.75;4473438;32;33169;-80
2023/10/06 05:28:50;;;;;;;0.47;0.47;;;;;;;15.36;54.16;100865.28;4453076;32;34255;-80
2023/10/06 05:31:18;;;;;;;0.20;0.20;;;;;;;15.36;54.16;100870.59;4470923;32;33171;-80
2023/10/06 05:33:47;;;;;;;5.05;0.68;;;;;;;15.37;54.39;100872.31;4459888;32;32502;-79
2023/10/06 05:36:14;;;;;;;0.47;0.47;;;;;;;15.31;54.60;100869.97;4456244;31;32876;-80
2023/10/06 05:38:49;;;;;;;0.37;0.37;;;;;;;15.19;55.02;100875.84;4447628;32;33208;-79
2023/10/06 05:41:17;;;;;;;1.30;1.12;;;;;;;15.30;54.42;100879.75;4463005;32;33141;-79
2023/10/06 05:43:44;;;;;;;1.48;1.37;;;;;;;15.29;54.86;100887.81;4477979;32;33091;-80
2023/10/06 05:46:12;;;;;;;0.65;0.43;;;;;;;15.47;54.15;100889.59;4474711;32;33486;-79
2023/10/06 05:48:41;;;;;;;0.47;0.47;;;;;;;15.48;54.41;100894.00;4474616;32;33223;-79
2023/10/06 05:51:09;;;;;;;2.47;0.95;;;;;;;15.60;54.23;100890.75;4460121;32;34000;-79
2023/10/06 05:53:42;;;;;;;0.57;0.57;;;;;;;15.78;53.37;100898.84;4475028;32;33154;-80
2023/10/06 05:56:10;;;;;;;0.33;0.33;;;;;;;15.70;53.47;100895.69;4474370;32;33086;-80
2023/10/06 05:58:40;;;;;;;2.17;0.45;;;;;;;15.76;53.74;100898.03;4477390;32;33657;-80
2023/10/06 06:01:18;;;;;;;1.30;0.37;;;;;;;15.73;53.42;100901.72;4478099;32;34066;-82
2023/10/06 06:03:57;;;;;;;9.75;2.28;;;;;;;15.66;54.20;100904.75;4462864;32;32132;-82
2023/10/06 06:06:29;;;;;;;0.00;0.00;;;;;;;15.84;54.31;100903.88;4477954;32;33864;-82
2023/10/06 06:09:14;;;;;;;0.30;0.30;;;;;;;15.81;54.24;100898.72;4465233;32;34699;-83
2023/10/06 06:11:42;;;;;;;1.40;1.08;;;;;;;15.69;55.05;100912.59;4474889;32;34649;-80
2023/10/06 06:14:10;;;;;;;1.58;0.90;;;;;;;15.84;54.33;100903.88;4474319;32;34106;-81
2023/10/06 06:16:44;;;;;;;0.35;0.35;;;;;;;15.70;55.02;100906.31;4463495;32;33149;-80
2023/10/06 06:19:13;;;;;;;4.37;0.75;;;;;;;15.58;55.10;100905.94;4462102;32;34054;-81
2023/10/06 06:21:42;;;;;;;0.70;0.68;;;;;;;15.61;55.03;100911.09;4474169;32;34140;-80
2023/10/06 06:24:09;;;;;;;1.50;0.95;;;;;;;15.74;54.93;100915.91;4461484;32;33126;-81
2023/10/06 06:26:38;;;;;;;1.12;0.77;;;;;;;15.68;54.73;100916.19;4475256;32;32742;-81
2023/10/06 06:29:08;;;;;;;1.80;1.40;;;;;;;15.59;55.07;100923.62;4464038;32;34192;-80
2023/10/06 06:31:38;;;;;;;2.78;1.60;;;;;;;15.61;55.07;100921.75;4474696;32;33997;-80
2023/10/06 06:34:06;;;;;;;2.12;1.02;;;;;;;15.57;55.26;100924.63;4477070;32;34262;-80
2023/10/06 06:36:33;;;;;;;0.73;0.73;;;;;;;15.49;55.03;100922.34;4461704;32;32444;-80
2023/10/06 06:39:03;;;;;;;1.77;0.30;;;;;;;15.58;55.11;100931.69;4461372;32;34750;-80
2023/10/06 06:41:31;;;;;;;0.45;0.45;;;;;;;15.79;54.21;100927.19;4475326;32;33160;-80
2023/10/06 06:43:59;;;;;;;1.55;0.55;;;;;;;15.82;54.54;100937.72;4462105;32;33446;-80
2023/10/06 06:46:29;;;;;;;0.08;0.05;;;;;;;16.09;53.24;100935.50;4476568;32;33965;-81
2023/10/06 06:48:59;;;;;;;2.05;0.70;;;;;;;16.23;52.62;100937.50;4462793;32;32999;-80
2023/10/06 06:51:31;;;;;;;2.65;0.75;;;;;;;16.23;52.43;100941.03;4454849;32;33237;-81
2023/10/06 06:53:59;;;;;;;3.67;0.90;;;;;;;16.48;51.84;100948.69;4473424;32;33579;-80
2023/10/06 06:56:28;;;;;;;0.45;0.32;;;;;;;16.34;52.43;100951.19;4464229;32;33377;-81
2023/10/06 06:58:59;;;;;;;0.30;0.30;;;;;;;16.40;52.34;100945.53;4463158;32;33954;-81
2023/10/06 07:01:27;;;;;;;0.45;0.45;;;;;;;16.37;52.27;100951.00;4476432;32;34343;-81
2023/10/06 07:03:56;;;;;;;0.88;0.55;;;;;;;16.57;51.57;100960.72;4475851;32;33730;-80
2023/10/06 07:06:26;;;;;;;1.10;0.77;;;;;;;16.33;52.24;100962.75;4463208;32;33829;-81
2023/10/06 07:08:54;;;;;;;0.73;0.73;;;;;;;16.57;51.70;100964.22;4463637;32;32905;-81
2023/10/06 07:11:21;;;;;;;1.27;1.02;;;;;;;16.45;51.83;100964.84;4463853;32;32885;-81
2023/10/06 07:13:49;;;;;;;2.25;1.48;;;;;;;16.37;52.39;100973.19;4451250;32;32292;-81
2023/10/06 07:16:17;;;;;;;0.52;0.52;;;;;;;16.60;52.04;100972.06;4475377;32;34721;-81
2023/10/06 07:18:45;;;;;;;0.20;0.13;;;;;;;16.85;51.47;100969.06;4475374;32;33707;-81
2023/10/06 07:21:13;;;;;;;1.95;0.60;;;;;;;17.00;51.77;100966.56;4461703;32;33856;-81
2023/10/06 07:23:42;;;;;;;4.53;2.67;;;;;;;16.74;52.27;100968.72;4449616;32;33037;-80
2023/10/06 07:26:10;;;;;;;0.10;0.10;;;;;;;16.86;51.61;100961.94;4473841;32;33340;-81
2023/10/06 07:28:41;;;;;;;0.43;0.37;;;;;;;16.95;50.97;100964.12;4462400;32;35165;-81
2023/10/06 07:31:12;;;;;;;0.30;0.30;;;;;;;17.39;50.04;100967.12;4462167;32;34167;-81
2023/10/06 07:33:47;;;;;;;0.30;0.30;;;;;;;17.47;50.36;100961.38;4464093;32;32132;-81
2023/10/06 07:36:17;;;;;;;0.10;0.10;;;;;;;17.48;50.40;100962.22;4453002;32;33150;-81
2023/10/06 07:38:46;;;;;;;1.65;0.90;;;;;;;17.74;49.70;100963.50;4464038;32;33187;-81
2023/10/06 07:41:23;;;;;;;0.43;0.25;;;;;;;18.02;48.86;100973.53;4472780;32;33918;-81
2023/10/06 07:43:52;;;;;;;1.85;1.30;;;;;;;17.81;48.54;100976.44;4461077;32;32742;-81
2023/10/06 07:46:20;;;;;;;0.70;0.70;;;;;;;18.00;48.48;100981.63;4456810;32;33936;-81
2023/10/06 07:48:50;;;;;;;0.60;0.60;;;;;;;18.45;47.48;100977.28;4462429;32;34362;-81
2023/10/06 07:51:19;;;;;;;1.45;1.17;;;;;;;18.48;47.98;100971.78;4476334;32;33438;-82
2023/10/06 07:53:48;;;;;;;0.30;0.20;;;;;;;18.71;47.57;100974.97;4448384;32;32465;-81
2023/10/06 07:56:18;;;;;;;0.45;0.40;;;;;;;18.39;47.06;100973.16;4460666;32;34856;-81
2023/10/06 07:58:47;;;;;;;0.05;0.05;;;;;;;18.59;47.14;100974.69;4477756;32;33812;-81
2023/10/06 08:01:18;;;;;;;0.65;0.60;;;;;;;18.91;46.70;100971.94;4461500;32;33558;-81
2023/10/06 08:03:46;;;;;;;;;;;;;;;19.01;46.90;100969.59;4462353;32;32419;-81
2023/10/06 08:06:14;;;;;;;0.20;0.20;;;;;;;19.32;45.77;100971.25;4461906;32;33318;-84
2023/10/06 08:08:44;;;;;;;3.17;0.68;;;;;;;19.39;45.46;100977.97;4471925;32;33562;-81
2023/10/06 08:11:13;;;;;;;3.10;0.80;;;;;;;19.59;45.35;100976.72;4476512;32;33833;-81
2023/10/06 08:13:46;;;;;;;4.05;0.52;;;;;;;19.77;45.82;100980.09;4450888;32;32246;-81
2023/10/06 08:16:14;;;;;;;1.70;1.15;;;;;;;19.72;45.60;100983.06;4473439;32;33339;-81
2023/10/06 08:18:42;;;;;;;0.43;0.43;;;;;;;20.08;44.43;100981.66;4449560;32;33370;-81
2023/10/06 08:21:11;;;;;;;0.80;0.77;;;;;;;20.02;44.43;100984.75;4474971;32;34024;-81
2023/10/06 08:23:39;;;;;;;0.20;0.20;;;;;;;19.78;44.54;100989.84;4476901;32;33879;-81
2023/10/06 08:26:18;;;;;;;1.05;0.52;;;;;;;19.90;44.38;100992.63;4462047;32;32787;-81
2023/10/06 08:28:46;;;;;;;0.22;0.22;;;;;;;20.11;44.11;100987.69;4476178;32;32968;-81
2023/10/06 08:31:18;;;;;;;0.88;0.60;;;;;;;20.15;43.35;100985.69;4446941;32;32953;-81
2023/10/06 08:33:45;;;;;;;2.13;1.00;;;;;;;20.51;42.74;100987.81;4473111;32;33512;-81
2023/10/06 08:36:14;;;;;;;1.55;1.02;;;;;;;20.82;42.68;100989.28;4474110;32;34818;-81
2023/10/06 08:38:51;;;;;;;0.52;0.40;;;;;;;20.83;42.63;100992.84;4458048;32;34858;-81
2023/10/06 08:41:37;;;;;;;0.90;0.68;;;;;;;21.27;42.67;100994.28;4460645;32;33834;-81
2023/10/06 08:44:12;;;;;;;1.98;0.82;;;;;;;21.58;40.56;100991.22;4446907;32;33921;-81
2023/10/06 08:46:44;;;;;;;1.17;0.82;;;;;;;21.66;40.26;100994.22;4474312;32;34745;-81
2023/10/06 08:49:12;;;;;;;1.30;0.93;;;;;;;21.12;41.29;100991.69;4459960;32;33579;-81
2023/10/06 08:51:40;;;;;;;0.30;0.30;;;;;;;21.14;41.06;100992.47;4449446;32;33026;-81
2023/10/06 08:54:13;;;;;;;0.55;0.40;;;;;;;21.35;40.98;100991.97;4458764;32;33209;-81
2023/10/06 08:56:41;;;;;;;0.40;0.40;;;;;;;21.53;39.98;100988.00;4452899;32;32503;-81
2023/10/06 08:59:11;;;;;;;0.20;0.20;;;;;;;21.87;39.48;100990.97;4476381;32;32075;-83
2023/10/06 09:01:38;;;;;;;0.65;0.37;;;;;;;21.93;38.95;100986.03;4461984;32;33848;-81
2023/10/06 09:04:09;;;;;;;2.22;0.57;;;;;;;21.52;39.90;100986.28;4476702;32;33715;-81
2023/10/06 09:07:15;;;;;;;1.42;0.50;;;;;;;22.24;39.46;100984.66;4450585;32;33730;-80
2023/10/06 09:09:43;;;;;;;0.60;0.50;;;;;;;22.24;39.67;100984.66;4472503;32;33716;-81
2023/10/06 09:12:25;;;;;;;0.25;0.25;;;;;;;22.18;38.85;100985.13;4469196;32;33798;-81
2023/10/06 09:14:56;;;;;;;1.27;0.30;;;;;;;22.65;37.96;100975.34;4478351;32;33350;-81
2023/10/06 09:17:35;;;;;;;0.65;0.65;;;;;;;22.99;36.52;100970.09;4463175;32;33771;-81
2023/10/06 09:20:03;;;;;;;2.17;2.03;;;;;;;22.80;37.90;100975.16;4451860;32;32282;-81
2023/10/06 09:22:50;;;;;;;1.65;0.95;;;;;;;22.80;37.88;100977.84;4475650;32;33952;-81
2023/10/06 09:25:19;;;;;;;5.25;1.77;;;;;;;22.86;38.47;100980.91;4475676;31;32196;-81
2023/10/06 09:27:48;;;;;;;1.12;0.62;;;;;;;22.66;38.62;100977.03;4469875;32;33544;-81
2023/10/06 09:30:20;;;;;;;2.42;0.90;;;;;;;22.61;37.96;100976.53;4472617;32;33562;-81
2023/10/06 09:33:00;;;;;;;3.55;0.60;;;;;;;22.82;37.65;100978.56;4443458;32;33581;-81
2023/10/06 09:35:28;;;;;;;0.30;0.30;;;;;;;22.75;37.25;100968.28;4462103;32;33311;-80
2023/10/06 09:38:17;;;;;;;0.43;0.43;;;;;;;23.04;36.88;100967.91;4470441;32;33522;-81
2023/10/06 09:40:46;;;;;;;0.47;0.45;;;;;;;23.66;35.62;100959.44;4468189;32;34182;-81
2023/10/06 09:43:17;;;;;;;4.10;0.57;;;;;;;23.54;35.93;100960.34;4460908;32;33170;-81
2023/10/06 09:45:51;;;;;;;1.30;0.77;;;;;;;23.88;34.95;100963.06;4460377;32;33715;-81
2023/10/06 09:48:24;;;;;;;1.12;1.02;;;;;;;23.54;35.25;100946.88;4461096;32;33852;-81
2023/10/06 09:50:54;;;;;;;1.95;0.35;;;;;;;24.16;34.65;100946.34;4472992;32;34720;-81
2023/10/06 09:53:22;;;;;;;0.30;0.30;;;;;;;23.98;34.39;100947.88;4460376;32;32904;-81
2023/10/06 09:55:50;;;;;;;0.60;0.60;;;;;;;23.51;33.21;100950.69;4471229;32;33323;-81
2023/10/06 09:58:18;;;;;;;0.32;0.32;;;;;;;23.82;31.86;100947.41;4470113;32;33314;-82
2023/10/06 10:00:47;;;;;;;0.17;0.17;;;;;;;24.47;31.48;100938.44;4461176;32;34647;-81
2023/10/06 10:03:18;;;;;;;7.30;0.55;;;;;;;24.75;31.38;100940.50;4474981;32;33870;-81
2023/10/06 10:05:46;;;;;;;0.47;0.43;;;;;;;24.45;31.21;100937.69;4462024;32;32523;-81
2023/10/06 10:08:14;;;;;;;0.50;0.50;;;;;;;24.33;31.81;100936.00;4473551;32;33510;-81
2023/10/06 10:10:44;;;;;;;0.20;0.10;;;;;;;24.71;30.13;100930.97;4471674;32;33799;-81
2023/10/06 10:13:19;;;;;;;3.72;0.90;;;;;;;24.54;31.09;100934.22;4462330;32;34327;-81
2023/10/06 10:16:25;;;;;;;1.00;0.35;;;;;;;24.54;31.62;100928.81;4472003;32;34178;-81
2023/10/06 10:18:59;;;;;;;0.10;0.10;;;;;;;24.77;31.47;100925.03;4472196;32;33286;-81
2023/10/06 10:21:27;;;;;;;0.20;0.20;;;;;;;25.00;29.39;100912.25;4462936;32;33736;-81
2023/10/06 10:23:56;;;;;;;0.77;0.77;;;;;;;24.91;29.92;100909.47;4458636;32;33678;-80
2023/10/06 10:27:01;;;;;;;0.10;0.10;;;;;;;24.64;31.57;100902.78;4454657;32;33647;-81
2023/10/06 10:30:07;;;;;;;0.10;0.10;;;;;;;25.15;29.33;100903.81;4426609;32;33876;-81
2023/10/06 10:32:41;;;;;;;1.60;0.68;;;;;;;25.22;29.64;100883.38;4442815;32;34914;-81
2023/10/06 10:36:00;;;;;;;1.05;0.55;;;;;;;25.44;29.07;100880.47;4463235;32;33864;-81
2023/10/06 10:38:38;;;;;;;0.98;0.37;;;;;;;25.42;30.61;100873.50;4454688;32;32014;-81
2023/10/06 10:41:07;;;;;;;1.08;0.50;;;;;;;25.02;30.11;100877.00;4458640;32;33132;-81
2023/10/06 10:43:40;;;;;;;;;;;;;;;25.09;30.03;100880.91;4460637;32;34317;-81
2023/10/06 10:46:08;;;;;;;0.35;0.35;;;;;;;25.13;29.89;100876.94;4477575;32;34500;-81
2023/10/06 10:48:37;;;;;;;0.00;0.00;;;;;;;24.95;31.51;100883.91;4457735;32;33148;-81
2023/10/06 10:51:12;;;;;;;0.20;0.10;;;;;;;24.88;30.01;100877.34;4463669;32;31667;-81
2023/10/06 10:53:45;;;;;;;0.47;0.45;;;;;;;25.33;28.87;100867.06;4488239;31;33910;-81
2023/10/06 10:56:27;;;;;;;0.15;0.10;;;;;;;25.17;30.28;100866.72;4472594;32;33594;-81
2023/10/06 10:58:56;;;;;;;0.68;0.43;;;;;;;25.61;29.55;100865.44;4458834;32;33110;-80
2023/10/06 11:01:33;;;;;;;0.13;0.13;;;;;;;25.25;30.97;100865.03;4457024;32;33011;-81
2023/10/06 11:04:14;;;;;;;1.15;0.65;;;;;;;25.20;29.77;100861.03;4462444;32;33065;-81
2023/10/06 11:06:48;;;;;;;0.17;0.17;;;;;;;25.02;29.80;100871.59;4472241;32;32795;-81
2023/10/06 11:09:36;;;;;;;1.30;0.52;;;;;;;25.03;30.30;100866.03;4446345;32;32643;-81
2023/10/06 11:12:30;;;;;;;0.75;0.70;;;;;;;25.02;31.17;100858.09;4460098;32;32770;-81
2023/10/06 11:15:14;;;;;;;0.40;0.37;;;;;;;25.19;29.86;100854.75;4449614;32;33481;-81
2023/10/06 11:17:43;;;;;;;0.80;0.47;;;;;;;25.10;29.99;100850.16;4470952;32;33978;-81
2023/10/06 11:20:22;;;;;;;0.13;0.13;;;;;;;25.12;30.29;100853.63;4450281;32;32220;-81
2023/10/06 11:23:01;;;;;;;4.30;0.82;;;;;;;24.92;30.24;100854.44;4473399;32;33405;-81
2023/10/06 11:25:32;;;;;;;1.48;0.98;;;;;;;24.67;31.22;100847.63;4464268;32;34135;-81
2023/10/06 11:28:08;;;;;;;2.17;0.32;;;;;;;24.06;31.10;100850.94;4463588;32;32991;-81
2023/10/06 11:30:38;;;;;;;1.05;0.55;;;;;;;24.53;31.79;100846.09;4447026;32;33501;-81
2023/10/06 11:33:11;;;;;;;0.82;0.65;;;;;;;24.61;33.01;100849.00;4475724;32;33118;-80
2023/10/06 11:35:40;;;;;;;6.22;0.45;;;;;;;24.49;31.32;100856.31;4476013;32;33965;-81
2023/10/06 11:38:11;;;;;;;0.28;0.10;;;;;;;25.06;31.08;100854.09;4459721;32;33979;-81
2023/10/06 11:43:45;;;;;;;0.00;0.00;;;;;;;24.90;31.96;100849.19;4476448;32;33403;-85
2023/10/06 11:46:54;;;;;;;0.47;0.47;;;;;;;25.59;29.76;100844.94;4466786;32;34989;-83
2023/10/06 11:49:23;;;;;;;0.20;0.17;;;;;;;25.51;30.38;100837.53;4448770;32;33960;-83
2023/10/06 11:51:51;;;;;;;0.05;0.03;;;;;;;25.36;31.23;100838.91;4461584;32;33043;-83
2023/10/06 11:54:19;;;;;;;0.05;0.05;;;;;;;25.80;28.55;100824.09;4445251;32;33687;-83
2023/10/06 11:56:52;;;;;;;1.75;0.20;;;;;;;25.37;29.93;100824.41;4471710;32;33134;-83
2023/10/06 11:59:22;;;;;;;0.10;0.10;;;;;;;25.69;29.90;100814.22;4474096;32;34315;-83